createdAt,value
2023-07-25T00:00:28.277Z,34.23
2023-07-25T00:02:59.039Z,34.22
2023-07-25T00:05:29.514Z,34.19
2023-07-25T00:07:59.239Z,34.18
2023-07-25T00:10:29.398Z,34.16
2023-07-25T00:12:59.299Z,34.13
2023-07-25T00:15:31.466Z,34.10
2023-07-25T00:18:01.817Z,34.06
2023-07-25T00:20:32.292Z,34.03
2023-07-25T00:23:02.751Z,34.02
2023-07-25T00:25:33.172Z,34.00
2023-07-25T00:28:03.831Z,33.97
2023-07-25T00:30:36.119Z,33.94
2023-07-25T00:33:06.626Z,33.91
2023-07-25T00:35:37.092Z,33.89
2023-07-25T00:38:07.291Z,33.87
2023-07-25T00:40:42.392Z,33.86
2023-07-25T00:43:12.252Z,33.83
2023-07-25T00:45:44.859Z,33.82
2023-07-25T00:48:15.770Z,33.80
2023-07-25T00:50:46.307Z,33.78
2023-07-25T00:53:18.158Z,33.76
2023-07-25T00:55:50.357Z,33.73
2023-07-25T00:58:21.182Z,33.72
2023-07-25T01:00:53.508Z,33.72
2023-07-25T01:03:23.896Z,33.72
2023-07-25T01:05:55.817Z,33.72
2023-07-25T01:08:25.844Z,33.71
2023-07-25T01:10:55.792Z,33.72
2023-07-25T01:13:26.737Z,33.70
2023-07-25T01:16:00.910Z,33.70
2023-07-25T01:18:32.564Z,33.69
2023-07-25T01:21:04.558Z,33.66
2023-07-25T01:23:35.785Z,33.65
2023-07-25T01:26:07.701Z,33.65
2023-07-25T01:28:38.840Z,33.63
2023-07-25T01:31:09.216Z,33.62
2023-07-25T01:33:39.737Z,33.62
2023-07-25T01:36:10.124Z,33.62
2023-07-25T01:38:40.132Z,33.61
2023-07-25T01:41:11.380Z,33.62
2023-07-25T01:43:41.396Z,33.63
2023-07-25T01:46:11.820Z,33.62
2023-07-25T01:48:42.241Z,33.61
2023-07-25T01:51:12.223Z,33.62
2023-07-25T01:53:42.410Z,33.61
2023-07-25T01:56:14.662Z,33.62
2023-07-25T01:58:44.335Z,33.63
2023-07-25T02:01:14.088Z,33.62
2023-07-25T02:03:44.786Z,33.62
2023-07-25T02:06:15.360Z,33.60
2023-07-25T02:08:45.788Z,33.59
2023-07-25T02:11:18.324Z,33.58
2023-07-25T02:13:48.869Z,33.55
2023-07-25T02:16:18.943Z,33.54
2023-07-25T02:18:49.248Z,33.54
2023-07-25T02:21:19.596Z,33.54
2023-07-25T02:23:50.062Z,33.55
2023-07-25T02:26:21.919Z,33.56
2023-07-25T02:28:52.405Z,33.55
2023-07-25T02:31:22.773Z,33.56
2023-07-25T02:33:53.302Z,33.56
2023-07-25T02:36:23.238Z,33.57
2023-07-25T02:38:55.042Z,33.58
2023-07-25T02:41:27.336Z,33.57
2023-07-25T02:43:57.694Z,33.54
2023-07-25T02:46:27.901Z,33.52
2023-07-25T02:48:57.660Z,33.49
2023-07-25T02:51:26.249Z,33.46
2023-07-25T02:53:56.596Z,33.42
2023-07-25T02:56:30.326Z,33.38
2023-07-25T02:59:00.687Z,33.33
2023-07-25T03:01:31.092Z,33.30
2023-07-25T03:04:01.752Z,33.29
2023-07-25T03:06:32.039Z,33.28
2023-07-25T03:09:01.916Z,33.28
2023-07-25T03:11:34.080Z,33.29
2023-07-25T03:14:04.835Z,33.27
2023-07-25T03:16:35.789Z,33.26
2023-07-25T03:19:06.131Z,33.27
2023-07-25T03:21:36.626Z,33.26
2023-07-25T03:24:07.398Z,33.26
2023-07-25T03:26:39.929Z,33.26
2023-07-25T03:29:09.795Z,33.25
2023-07-25T03:31:40.282Z,33.26
2023-07-25T03:34:10.870Z,33.25
2023-07-25T03:36:41.222Z,33.25
2023-07-25T03:39:11.075Z,33.26
2023-07-25T03:41:43.346Z,33.27
2023-07-25T03:44:19.177Z,33.28
2023-07-25T03:46:49.129Z,33.27
2023-07-25T03:49:19.834Z,33.26
2023-07-25T03:51:50.285Z,33.26
2023-07-25T03:54:25.246Z,33.27
2023-07-25T03:56:57.142Z,33.28
2023-07-25T03:59:27.604Z,33.29
2023-07-25T04:01:57.471Z,33.32
2023-07-25T04:04:27.288Z,33.32
2023-07-25T04:06:57.587Z,33.35
2023-07-25T04:09:28.079Z,33.36
2023-07-25T04:12:00.034Z,33.38
2023-07-25T04:14:30.373Z,33.39
2023-07-25T04:17:00.905Z,33.39
2023-07-25T04:19:31.407Z,33.40
2023-07-25T04:22:01.676Z,33.41
2023-07-25T04:24:32.131Z,33.42
2023-07-25T04:27:04.647Z,33.45
2023-07-25T04:29:34.647Z,33.49
2023-07-25T04:32:04.531Z,33.54
2023-07-25T04:34:34.969Z,33.58
2023-07-25T04:37:05.450Z,33.60
2023-07-25T04:39:35.818Z,33.63
2023-07-25T04:42:08.849Z,33.67
2023-07-25T04:44:39.180Z,33.70
2023-07-25T04:47:09.702Z,33.75
2023-07-25T04:49:40.003Z,33.78
2023-07-25T04:52:11.069Z,33.84
2023-07-25T04:54:41.489Z,33.88
2023-07-25T04:57:13.946Z,33.92
2023-07-25T04:59:44.141Z,33.96
2023-07-25T05:02:14.211Z,34.00
2023-07-25T05:04:44.293Z,34.05
2023-07-25T05:07:14.723Z,34.09
2023-07-25T05:09:45.389Z,34.16
2023-07-25T05:12:17.906Z,34.21
2023-07-25T05:14:48.493Z,34.26
2023-07-25T05:17:18.670Z,34.30
2023-07-25T05:19:50.678Z,34.34
2023-07-25T05:22:21.124Z,34.38
2023-07-25T05:24:52.019Z,34.40
2023-07-25T05:27:23.945Z,34.43
2023-07-25T05:29:54.555Z,34.45
2023-07-25T05:32:25.826Z,34.48
2023-07-25T05:34:56.305Z,34.50
2023-07-25T05:37:36.273Z,34.53
2023-07-25T05:40:08.070Z,34.56
2023-07-25T05:42:40.057Z,34.60
2023-07-25T05:45:11.488Z,34.63
2023-07-25T05:47:41.918Z,34.66
2023-07-25T05:50:13.605Z,34.70
2023-07-25T05:52:43.688Z,34.74
2023-07-25T05:55:14.093Z,34.80
2023-07-25T05:57:46.007Z,34.86
2023-07-25T06:00:17.021Z,34.90
2023-07-25T06:02:46.840Z,34.94
2023-07-25T06:05:16.631Z,34.99
2023-07-25T06:07:47.006Z,35.04
2023-07-25T06:10:17.502Z,35.07
2023-07-25T06:12:49.966Z,35.12
2023-07-25T06:15:20.781Z,35.17
2023-07-25T06:17:50.861Z,35.22
2023-07-25T06:20:21.695Z,35.27
2023-07-25T06:22:52.714Z,35.34
2023-07-25T06:25:23.200Z,35.39
2023-07-25T06:27:55.419Z,35.46
2023-07-25T06:30:25.888Z,35.49
2023-07-25T06:32:57.019Z,35.54
2023-07-25T06:35:26.706Z,35.58
2023-07-25T06:37:57.148Z,35.63
2023-07-25T06:40:27.276Z,35.67
2023-07-25T06:42:59.450Z,35.72
2023-07-25T06:45:30.231Z,35.76
2023-07-25T06:48:00.670Z,35.79
2023-07-25T06:50:31.132Z,35.84
2023-07-25T06:53:01.444Z,35.88
2023-07-25T06:55:31.413Z,35.91
2023-07-25T06:58:03.683Z,35.93
2023-07-25T07:00:34.220Z,35.96
2023-07-25T07:03:04.655Z,35.98
2023-07-25T07:05:37.190Z,36.02
2023-07-25T07:08:08.458Z,36.07
2023-07-25T07:10:38.903Z,36.11
2023-07-25T07:13:11.249Z,36.16
2023-07-25T07:15:41.457Z,36.19
2023-07-25T07:18:12.076Z,36.22
2023-07-25T07:20:42.558Z,36.26
2023-07-25T07:23:12.880Z,36.30
2023-07-25T07:25:43.466Z,36.31
2023-07-25T07:28:15.962Z,36.35
2023-07-25T07:30:51.922Z,36.39
2023-07-25T07:33:22.038Z,36.43
2023-07-25T07:35:52.193Z,36.46
2023-07-25T07:38:22.471Z,36.49
2023-07-25T07:40:52.590Z,36.52
2023-07-25T07:43:24.390Z,36.58
2023-07-25T07:45:54.538Z,36.63
2023-07-25T07:48:24.889Z,36.68
2023-07-25T07:50:54.988Z,36.73
2023-07-25T07:53:25.426Z,36.77
2023-07-25T07:55:55.571Z,36.81
2023-07-25T07:58:27.662Z,36.85
2023-07-25T08:00:58.159Z,36.88
2023-07-25T08:03:28.101Z,36.92
2023-07-25T08:06:00.454Z,36.95
2023-07-25T08:08:30.763Z,36.98
2023-07-25T08:11:00.873Z,36.99
2023-07-25T08:13:32.680Z,37.01
2023-07-25T08:16:03.184Z,37.02
2023-07-25T08:18:33.694Z,37.06
2023-07-25T08:21:04.504Z,37.09
2023-07-25T08:23:34.850Z,37.13
2023-07-25T08:26:05.102Z,37.17
2023-07-25T08:28:37.566Z,37.19
2023-07-25T08:31:08.173Z,37.23
2023-07-25T08:33:38.509Z,37.26
2023-07-25T08:36:08.679Z,37.27
2023-07-25T08:38:39.724Z,37.28
2023-07-25T08:41:15.974Z,37.29
2023-07-25T08:43:49.420Z,37.27
2023-07-25T08:46:23.720Z,37.25
2023-07-25T08:49:03.167Z,37.24
2023-07-25T08:51:40.379Z,37.23
2023-07-25T08:54:21.910Z,37.23
2023-07-25T08:56:53.636Z,37.25
2023-07-25T08:59:27.270Z,37.26
2023-07-25T09:01:58.901Z,37.28
2023-07-25T09:04:31.806Z,37.32
2023-07-25T09:07:04.264Z,37.34
2023-07-25T09:09:34.149Z,37.38
2023-07-25T09:12:04.778Z,37.42
2023-07-25T09:14:38.228Z,37.44
2023-07-25T09:17:09.669Z,37.45
2023-07-25T09:19:40.050Z,37.45
2023-07-25T09:22:30.588Z,37.47
2023-07-25T09:25:01.909Z,37.47
2023-07-25T09:27:31.763Z,37.46
2023-07-25T09:30:04.524Z,37.46
2023-07-25T09:32:35.237Z,37.48
2023-07-25T09:35:07.688Z,37.50
2023-07-25T09:37:38.175Z,37.52
2023-07-25T09:40:13.379Z,37.53
2023-07-25T09:42:45.168Z,37.55
2023-07-25T09:45:16.904Z,37.60
2023-07-25T09:47:47.084Z,37.63
2023-07-25T09:50:17.375Z,37.64
2023-07-25T09:52:47.968Z,37.67
2023-07-25T09:55:18.008Z,37.68
2023-07-25T09:57:48.641Z,37.70
2023-07-25T10:00:22.255Z,37.71
2023-07-25T10:02:53.601Z,37.70
2023-07-25T10:05:24.864Z,37.72
2023-07-25T10:07:57.998Z,37.74
2023-07-25T10:10:29.819Z,37.75
2023-07-25T10:13:00.583Z,37.77
2023-07-25T10:15:33.441Z,37.79
2023-07-25T10:18:08.403Z,37.80
2023-07-25T10:20:38.392Z,37.81
2023-07-25T10:23:16.137Z,37.84
2023-07-25T10:25:46.085Z,37.85
2023-07-25T10:28:16.542Z,37.85
2023-07-25T10:30:50.340Z,37.88
2023-07-25T10:33:20.697Z,37.90
2023-07-25T10:35:54.523Z,37.93
2023-07-25T10:38:33.856Z,37.95
2023-07-25T10:41:15.118Z,37.92
2023-07-25T10:44:03.275Z,37.93
2023-07-25T10:46:38.025Z,37.90
2023-07-25T10:49:18.677Z,37.88
2023-07-25T10:51:54.272Z,37.84
2023-07-25T10:54:26.391Z,37.82
2023-07-25T10:57:19.038Z,37.80
2023-07-25T11:00:05.968Z,37.75
2023-07-25T11:02:40.721Z,37.77
2023-07-25T11:05:26.910Z,37.78
2023-07-25T11:08:01.331Z,37.78
2023-07-25T11:10:35.889Z,37.79
2023-07-25T11:13:06.321Z,37.81
2023-07-25T11:15:47.192Z,37.81
2023-07-25T11:18:22.218Z,37.79
2023-07-25T11:21:02.723Z,37.78
2023-07-25T11:23:34.373Z,37.79
2023-07-25T11:26:08.920Z,37.78
2023-07-25T11:28:43.108Z,37.77
2023-07-25T11:31:14.003Z,37.75
2023-07-25T11:33:47.229Z,37.76
2023-07-25T11:36:17.152Z,37.73
2023-07-25T11:38:50.627Z,37.74
2023-07-25T11:41:21.497Z,37.72
2023-07-25T11:43:54.049Z,37.68
2023-07-25T11:46:24.634Z,37.68
2023-07-25T11:49:00.271Z,37.67
2023-07-25T11:51:32.754Z,37.63
2023-07-25T11:54:08.203Z,37.62
2023-07-25T11:56:40.295Z,37.58
2023-07-25T11:59:16.921Z,37.56
2023-07-25T12:01:47.941Z,37.55
2023-07-25T12:04:24.359Z,37.55
2023-07-25T12:07:02.303Z,37.53
2023-07-25T12:09:34.246Z,37.51
2023-07-25T12:12:05.641Z,37.48
2023-07-25T12:14:36.226Z,37.46
2023-07-25T12:17:07.306Z,37.43
2023-07-25T12:19:41.064Z,37.40
2023-07-25T12:22:12.961Z,37.37
2023-07-25T12:24:47.160Z,37.37
2023-07-25T12:27:23.976Z,37.35
2023-07-25T12:29:55.798Z,37.34
2023-07-25T12:32:34.804Z,37.33
2023-07-25T12:35:18.645Z,37.33
2023-07-25T12:37:54.302Z,37.32
2023-07-25T12:40:27.091Z,37.33
2023-07-25T12:43:04.304Z,37.32
2023-07-25T12:45:39.418Z,37.29
2023-07-25T12:48:11.077Z,37.26
2023-07-25T12:50:47.336Z,37.24
2023-07-25T12:53:18.554Z,37.21
2023-07-25T12:55:50.572Z,37.18
2023-07-25T12:58:22.689Z,37.14
2023-07-25T13:00:55.408Z,37.10
2023-07-25T13:03:30.236Z,37.06
2023-07-25T13:06:06.727Z,37.03
2023-07-25T13:08:38.842Z,36.99
2023-07-25T13:11:10.339Z,36.97
2023-07-25T13:13:42.880Z,36.92
2023-07-25T13:16:17.182Z,36.89
2023-07-25T13:18:48.854Z,36.87
2023-07-25T13:21:22.667Z,36.86
2023-07-25T13:23:54.017Z,36.84
2023-07-25T13:26:27.646Z,36.82
2023-07-25T13:28:59.650Z,36.79
2023-07-25T13:31:34.695Z,36.76
2023-07-25T13:34:06.904Z,36.74
2023-07-25T13:36:44.835Z,36.71
2023-07-25T13:39:16.500Z,36.69
2023-07-25T13:41:48.356Z,36.65
2023-07-25T13:47:14.132Z,36.61
2023-07-25T13:49:47.766Z,36.58
2023-07-25T13:52:22.902Z,36.57
2023-07-25T13:54:57.353Z,36.54
2023-07-25T13:57:35.241Z,36.52
2023-07-25T14:00:14.161Z,36.52
2023-07-25T14:02:50.285Z,36.49
2023-07-25T14:05:21.960Z,36.48
2023-07-25T14:07:55.564Z,36.46
2023-07-25T14:10:28.342Z,36.43
2023-07-25T14:13:00.678Z,36.39
2023-07-25T14:15:32.356Z,36.38
2023-07-25T14:18:05.983Z,36.35
2023-07-25T14:20:41.336Z,36.34
2023-07-25T14:23:15.842Z,36.33
2023-07-25T14:25:47.885Z,36.34
2023-07-25T14:28:19.711Z,36.35
2023-07-25T14:30:52.483Z,36.35
2023-07-25T14:33:24.468Z,36.34
2023-07-25T14:35:57.541Z,36.32
2023-07-25T14:38:31.562Z,36.31
2023-07-25T14:41:04.821Z,36.30
2023-07-25T14:43:39.332Z,36.29
2023-07-25T14:46:10.957Z,36.28
2023-07-25T14:48:49.371Z,36.26
2023-07-25T14:51:27.897Z,36.24
2023-07-25T14:54:04.883Z,36.22
2023-07-25T14:56:36.743Z,36.23
2023-07-25T14:59:23.631Z,36.23
2023-07-25T15:02:15.125Z,36.21
2023-07-25T15:04:48.886Z,36.17
2023-07-25T15:07:22.909Z,36.16
2023-07-25T15:10:10.651Z,36.16
2023-07-25T15:13:04.501Z,36.13
2023-07-25T15:15:58.802Z,36.10
2023-07-25T15:19:08.701Z,36.06
2023-07-25T15:21:59.011Z,36.05
2023-07-25T15:24:47.909Z,36.03
2023-07-25T15:27:45.721Z,36.02
2023-07-25T15:30:41.436Z,35.99
2023-07-25T15:33:24.069Z,35.97
2023-07-25T15:36:15.893Z,35.97
2023-07-25T15:39:03.779Z,35.93
2023-07-25T15:41:53.926Z,35.91
2023-07-25T15:45:00.713Z,35.90
2023-07-25T15:47:57.028Z,35.85
2023-07-25T15:50:44.235Z,35.84
2023-07-25T15:59:50.668Z,35.76
2023-07-25T16:02:51.152Z,35.74
2023-07-25T16:09:00.753Z,35.67
2023-07-25T16:12:12.302Z,35.65
2023-07-25T16:15:01.587Z,35.64
2023-07-25T16:17:45.497Z,35.62
2023-07-25T16:20:42.854Z,35.61
2023-07-25T16:23:28.271Z,35.58
2023-07-25T16:26:16.083Z,35.55
2023-07-25T16:28:55.950Z,35.52
2023-07-25T16:31:51.778Z,35.52
2023-07-25T16:34:35.384Z,35.49
2023-07-25T16:37:25.622Z,35.47
2023-07-25T16:40:26.005Z,35.44
2023-07-25T16:43:19.238Z,35.42
2023-07-25T16:52:40.143Z,35.35
2023-07-25T16:55:23.149Z,35.34
2023-07-25T16:58:10.213Z,35.33
2023-07-25T17:03:50.953Z,35.29
2023-07-25T17:06:42.464Z,35.28
2023-07-25T17:09:27.085Z,35.25
2023-07-25T17:12:09.177Z,35.23
2023-07-25T17:14:56.404Z,35.22
2023-07-25T17:17:57.901Z,35.19
2023-07-25T17:20:58.930Z,35.15
2023-07-25T17:23:57.288Z,35.12
2023-07-25T17:26:47.704Z,35.10
2023-07-25T17:29:43.457Z,35.08
2023-07-25T17:32:46.054Z,35.07
2023-07-25T17:39:03.440Z,35.00
2023-07-25T17:41:51.040Z,34.98
2023-07-25T17:44:29.614Z,34.98
2023-07-25T17:47:11.103Z,34.97
2023-07-25T17:50:02.462Z,34.96
2023-07-25T17:52:58.848Z,34.94
2023-07-25T17:55:56.296Z,34.92
2023-07-25T17:58:37.076Z,34.89
2023-07-25T18:01:42.387Z,34.88
2023-07-25T18:04:21.478Z,34.85
2023-07-25T18:07:03.603Z,34.84
2023-07-25T18:09:42.267Z,34.82
2023-07-25T18:12:35.356Z,34.80
2023-07-25T18:15:30.337Z,34.78
2023-07-25T18:18:09.563Z,34.74
2023-07-25T18:21:00.435Z,34.75
2023-07-25T18:23:42.165Z,34.73
2023-07-25T18:26:27.076Z,34.73
2023-07-25T18:29:10.346Z,34.73
2023-07-25T18:32:00.466Z,34.72
2023-07-25T18:35:06.866Z,34.71
2023-07-25T18:37:55.087Z,34.70
2023-07-25T18:40:38.174Z,34.69
2023-07-25T18:43:44.977Z,34.70
2023-07-25T18:46:53.069Z,34.69
2023-07-25T18:49:40.534Z,34.67
2023-07-25T18:52:27.862Z,34.69
2023-07-25T18:55:07.556Z,34.69
2023-07-25T18:57:56.587Z,34.68
2023-07-25T19:00:37.839Z,34.67
2023-07-25T19:03:32.199Z,34.68
2023-07-25T19:06:24.865Z,34.68
2023-07-25T19:09:20.005Z,34.67
2023-07-25T19:17:46.670Z,34.67
2023-07-25T19:20:35.551Z,34.66
2023-07-25T19:26:48.340Z,34.62
2023-07-25T19:29:43.953Z,34.61
2023-07-25T19:39:13.673Z,34.56
2023-07-25T19:41:59.587Z,34.57
2023-07-25T19:44:33.030Z,34.57
2023-07-25T19:47:10.864Z,34.58
2023-07-25T19:49:43.401Z,34.57
2023-07-25T19:52:19.949Z,34.57
2023-07-25T19:54:52.464Z,34.58
2023-07-25T19:57:25.476Z,34.57
2023-07-25T20:00:00.422Z,34.56
2023-07-25T20:02:35.421Z,34.56
2023-07-25T20:05:13.416Z,34.56
2023-07-25T20:07:55.740Z,34.55
2023-07-25T20:10:33.232Z,34.54
2023-07-25T20:13:06.457Z,34.54
2023-07-25T20:15:51.216Z,34.53
2023-07-25T20:18:26.654Z,34.52
2023-07-25T20:21:17.208Z,34.51
2023-07-25T20:23:55.832Z,34.51
2023-07-25T20:26:37.194Z,34.50
2023-07-25T20:29:13.650Z,34.49
2023-07-25T20:31:47.611Z,34.49
2023-07-25T20:34:20.867Z,34.48
2023-07-25T20:36:54.695Z,34.47
2023-07-25T20:39:36.081Z,34.49
2023-07-25T20:42:15.666Z,34.46
2023-07-25T20:44:51.036Z,34.46
2023-07-25T20:47:29.257Z,34.45
2023-07-25T20:50:02.888Z,34.45
2023-07-25T20:52:35.916Z,34.44
2023-07-25T20:55:20.398Z,34.43
2023-07-25T20:57:53.099Z,34.42
2023-07-25T21:00:26.429Z,34.41
2023-07-25T21:03:02.700Z,34.41
2023-07-25T21:05:35.455Z,34.40
2023-07-25T21:08:07.140Z,34.40
2023-07-25T21:10:45.265Z,34.38
2023-07-25T21:13:19.857Z,34.39
2023-07-25T21:15:55.783Z,34.38
2023-07-25T21:18:30.021Z,34.37
2023-07-25T21:21:06.612Z,34.37
2023-07-25T21:23:40.467Z,34.38
2023-07-25T21:26:13.442Z,34.38
2023-07-25T21:28:44.861Z,34.38
2023-07-25T21:31:17.852Z,34.37
2023-07-25T21:33:53.623Z,34.37
2023-07-25T21:36:25.511Z,34.37
2023-07-25T21:38:58.136Z,34.37
2023-07-25T21:41:46.426Z,34.37
2023-07-25T21:44:18.523Z,34.36
2023-07-25T21:46:53.669Z,34.36
2023-07-25T21:49:26.130Z,34.36
2023-07-25T21:51:59.721Z,34.35
2023-07-25T21:54:34.808Z,34.36
2023-07-25T21:57:18.730Z,34.36
2023-07-25T21:59:51.148Z,34.35
2023-07-25T22:02:26.654Z,34.35
2023-07-25T22:05:00.960Z,34.34
2023-07-25T22:07:41.181Z,34.34
2023-07-25T22:10:14.464Z,34.33
2023-07-25T22:12:53.481Z,34.32
2023-07-25T22:15:30.322Z,34.29
2023-07-25T22:18:02.667Z,34.29
2023-07-25T22:20:45.803Z,34.28
2023-07-25T22:23:25.662Z,34.28
2023-07-25T22:26:04.048Z,34.26
2023-07-25T22:28:40.224Z,34.24
2023-07-25T22:31:16.105Z,34.24
2023-07-25T22:33:49.836Z,34.23
2023-07-25T22:36:23.118Z,34.22
2023-07-25T22:38:56.125Z,34.22
2023-07-25T22:41:26.810Z,34.20
2023-07-25T22:44:00.635Z,34.20
2023-07-25T22:46:35.199Z,34.19
2023-07-25T22:49:07.357Z,34.19
2023-07-25T22:51:45.852Z,34.18
2023-07-25T22:54:18.703Z,34.17
2023-07-25T22:56:52.711Z,34.17
2023-07-25T22:59:33.252Z,34.17
2023-07-25T23:02:08.111Z,34.16
2023-07-25T23:04:40.128Z,34.15
2023-07-25T23:07:15.489Z,34.14
2023-07-25T23:09:48.725Z,34.14
2023-07-25T23:12:24.014Z,34.13
2023-07-25T23:15:01.439Z,34.11
2023-07-25T23:17:36.726Z,34.10
2023-07-25T23:20:12.950Z,34.10
2023-07-25T23:22:43.669Z,34.10
2023-07-25T23:25:15.759Z,34.09
2023-07-25T23:27:47.209Z,34.10
2023-07-25T23:30:21.292Z,34.11
2023-07-25T23:32:52.562Z,34.13
2023-07-25T23:35:24.334Z,34.13
2023-07-25T23:37:55.360Z,34.16
2023-07-25T23:40:27.793Z,34.16
2023-07-25T23:42:58.647Z,34.16
2023-07-25T23:45:31.827Z,34.16
2023-07-25T23:48:02.759Z,34.16
2023-07-25T23:50:35.076Z,34.15
2023-07-25T23:53:05.604Z,34.14
2023-07-25T23:55:36.925Z,34.13
2023-07-25T23:58:07.807Z,34.12
